Time;durP1;ratioP1;P1;durP2;ratioP2;P2;SDS_P1;SDS_P2;PMS_P1;PMS_P2;Temp;Humidity;BMP_temperature;BMP_pressure;BME280_temperature;BME280_humidity;BME280_pressure;Samples;Min_cycle;Max_cycle;Signal;HPM_P1;HPM_P2
2023/09/03 00:02:16;;;;;;;1.30;0.60;;;19.80;1.00;;;;;;5136577;27;20415;-58
2023/09/03 00:04:43;;;;;;;1.10;0.70;;;19.80;1.00;;;;;;5136653;27;20413;-59
2023/09/03 00:07:10;;;;;;;1.10;0.60;;;19.80;1.00;;;;;;5135137;27;20418;-59
2023/09/03 00:09:37;;;;;;;1.50;0.60;;;19.80;1.00;;;;;;5134966;27;20472;-58
2023/09/03 00:12:05;;;;;;;1.00;0.60;;;19.80;1.00;;;;;;5135278;27;20426;-59
2023/09/03 00:14:34;;;;;;;1.10;0.60;;;19.70;1.00;;;;;;5135974;27;20423;-57
2023/09/03 00:17:01;;;;;;;1.10;0.60;;;19.60;1.00;;;;;;5136751;27;20845;-58
2023/09/03 00:19:28;;;;;;;0.83;0.60;;;19.60;1.00;;;;;;5136890;27;20810;-58
2023/09/03 00:21:55;;;;;;;0.90;0.60;;;19.60;1.00;;;;;;5137248;27;20931;-58
2023/09/03 00:24:22;;;;;;;1.30;0.70;;;19.60;1.00;;;;;;5135911;27;20513;-58
2023/09/03 00:26:49;;;;;;;0.90;0.60;;;19.60;1.00;;;;;;5135484;27;20429;-58
2023/09/03 00:29:16;;;;;;;0.80;0.60;;;19.60;1.00;;;;;;5135381;27;20410;-58
2023/09/03 00:31:44;;;;;;;1.10;0.70;;;19.60;1.00;;;;;;5135632;27;20414;-58
2023/09/03 00:34:12;;;;;;;1.00;0.60;;;19.60;1.00;;;;;;5135383;27;20425;-58
2023/09/03 00:36:40;;;;;;;1.37;0.63;;;19.60;1.00;;;;;;5134685;27;20434;-57
2023/09/03 00:39:07;;;;;;;1.20;0.60;;;19.60;1.00;;;;;;5136167;27;20898;-58
2023/09/03 00:41:34;;;;;;;0.80;0.60;;;19.60;1.00;;;;;;5135605;27;20837;-59
2023/09/03 00:44:02;;;;;;;1.20;0.70;;;19.60;1.00;;;;;;5136733;27;20422;-59
2023/09/03 00:46:29;;;;;;;1.17;0.60;;;19.60;1.00;;;;;;5136982;27;20851;-58
2023/09/03 00:48:59;;;;;;;1.50;0.60;;;19.60;4.40;;;;;;5136724;27;20422;-58
2023/09/03 00:51:27;;;;;;;0.90;0.52;;;19.50;1.00;;;;;;5136606;27;20429;-59
2023/09/03 00:53:57;;;;;;;1.00;0.60;;;19.50;1.00;;;;;;5136729;27;20840;-58
2023/09/03 00:56:24;;;;;;;1.10;0.60;;;19.50;1.00;;;;;;5136220;27;20430;-58
2023/09/03 00:58:52;;;;;;;1.27;0.60;;;19.40;1.00;;;;;;5136831;27;20702;-58
2023/09/03 01:01:20;;;;;;;1.10;0.60;;;19.40;1.00;;;;;;5137075;27;20418;-57
2023/09/03 01:03:48;;;;;;;1.00;0.60;;;19.40;6.90;;;;;;5136292;27;20421;-55
2023/09/03 01:06:16;;;;;;;1.50;1.40;;;19.30;10.60;;;;;;5134762;27;20513;-57
2023/09/03 01:08:43;;;;;;;1.00;0.60;;;19.40;9.00;;;;;;5136397;27;20436;-57
2023/09/03 01:11:25;;;;;;;1.00;0.60;;;19.40;8.10;;;;;;5136521;27;20402;-58
2023/09/03 01:14:07;;;;;;;0.90;0.60;;;19.40;7.70;;;;;;5136014;27;20410;-59
2023/09/03 01:16:41;;;;;;;0.90;0.60;;;19.50;1.00;;;;;;5135338;27;20422;-58
2023/09/03 01:19:23;;;;;;;0.90;0.60;;;19.50;1.00;;;;;;5136629;27;20418;-59
2023/09/03 01:21:58;;;;;;;1.60;0.70;;;19.50;1.00;;;;;;5136673;27;20425;-58
2023/09/03 01:24:48;;;;;;;1.55;0.70;;;19.50;1.00;;;;;;5136359;27;20466;-58
2023/09/03 01:27:25;;;;;;;1.00;0.70;;;19.40;1.00;;;;;;5135449;27;20422;-60
2023/09/03 01:29:54;;;;;;;1.30;0.70;;;19.40;1.30;;;;;;5134031;27;20459;-57
2023/09/03 01:32:23;;;;;;;1.70;0.60;;;19.40;4.50;;;;;;5133469;27;20700;-58
2023/09/03 01:34:52;;;;;;;2.10;0.60;;;19.40;9.60;;;;;;5133308;27;20418;-59
2023/09/03 01:37:20;;;;;;;0.70;0.50;;;19.40;12.30;;;;;;5134017;27;20452;-57
2023/09/03 01:39:47;;;;;;;1.40;0.60;;;19.30;9.20;;;;;;5133914;27;20425;-59
2023/09/03 01:42:14;;;;;;;1.00;0.60;;;19.30;2.70;;;;;;5133686;27;20414;-58
2023/09/03 01:44:42;;;;;;;1.00;0.60;;;19.30;4.30;;;;;;5135235;27;20425;-59
2023/09/03 01:47:19;;;;;;;0.90;0.60;;;19.30;4.00;;;;;;5134916;27;20410;-57
2023/09/03 01:50:05;;;;;;;2.10;0.60;;;19.30;10.50;;;;;;5135534;27;20479;-57
2023/09/03 01:52:39;;;;;;;1.40;0.70;;;19.30;8.50;;;;;;5136521;27;20417;-57
2023/09/03 01:55:10;;;;;;;0.90;0.60;;;19.30;9.70;;;;;;5140343;27;20426;-57
2023/09/03 01:57:42;;;;;;;1.30;0.70;;;19.40;7.30;;;;;;5140623;27;20418;-56
2023/09/03 02:00:13;;;;;;;0.80;0.60;;;19.40;1.30;;;;;;5140579;27;20422;-57
2023/09/03 02:02:44;;;;;;;0.93;0.60;;;19.50;1.20;;;;;;5140026;27;20414;-55
2023/09/03 02:05:12;;;;;;;2.30;0.52;;;19.50;1.00;;;;;;5138761;27;20418;-57
2023/09/03 02:07:39;;;;;;;0.90;0.60;;;19.50;1.00;;;;;;5138654;27;20422;-57
2023/09/03 02:10:07;;;;;;;2.00;0.70;;;19.50;1.00;;;;;;5138432;27;20410;-57
2023/09/03 02:12:35;;;;;;;1.63;0.60;;;19.50;1.00;;;;;;5138432;27;20418;-55
2023/09/03 02:15:02;;;;;;;1.10;0.70;;;19.50;9.20;;;;;;5138412;27;20433;-58
2023/09/03 02:17:29;;;;;;;1.80;0.70;;;19.50;11.60;;;;;;5137392;27;20620;-58
2023/09/03 02:19:58;;;;;;;1.20;0.70;;;19.50;10.30;;;;;;5138681;27;20414;-57
2023/09/03 02:22:25;;;;;;;0.82;0.60;;;19.50;9.80;;;;;;5139951;27;20464;-58
2023/09/03 02:24:52;;;;;;;1.10;0.70;;;19.50;10.90;;;;;;5138931;27;20418;-58
2023/09/03 02:27:19;;;;;;;0.88;0.60;;;19.50;1.00;;;;;;5139380;27;20672;-56
2023/09/03 02:29:47;;;;;;;1.50;0.50;;;19.40;1.00;;;;;;5139511;27;20418;-57
2023/09/03 02:32:14;;;;;;;1.00;0.60;;;19.40;1.00;;;;;;5139486;27;20499;-57
2023/09/03 02:34:41;;;;;;;0.80;0.60;;;19.30;1.00;;;;;;5139342;27;20409;-58
2023/09/03 02:37:09;;;;;;;1.00;0.60;;;19.20;1.00;;;;;;5139755;27;20710;-57
2023/09/03 02:39:36;;;;;;;0.80;0.60;;;19.20;4.80;;;;;;5139528;27;20414;-57
2023/09/03 02:42:04;;;;;;;1.40;0.70;;;19.10;11.00;;;;;;5138717;27;20821;-57
2023/09/03 02:44:31;;;;;;;1.00;0.70;;;19.10;13.60;;;;;;5130419;27;20419;-56
2023/09/03 02:46:58;;;;;;;1.30;0.70;;;19.10;12.00;;;;;;5136717;27;20407;-57
2023/09/03 02:49:25;;;;;;;1.30;0.70;;;19.00;21.90;;;;;;5137644;27;20706;-57
2023/09/03 02:51:52;;;;;;;0.80;0.60;;;18.90;30.20;;;;;;5137848;27;20446;-57
2023/09/03 02:54:21;;;;;;;1.00;0.60;;;18.90;37.80;;;;;;5137905;27;20426;-57
2023/09/03 02:56:48;;;;;;;1.40;0.70;;;18.90;43.00;;;;;;5137743;27;20422;-58
2023/09/03 02:59:15;;;;;;;1.02;0.60;;;18.90;46.90;;;;;;5137571;27;20414;-57
2023/09/03 03:01:43;;;;;;;1.67;0.70;;;18.80;55.00;;;;;;5136917;27;20411;-56
2023/09/03 03:04:10;;;;;;;1.40;0.70;;;18.80;48.00;;;;;;5137738;27;20419;-58
2023/09/03 03:06:37;;;;;;;1.00;0.63;;;18.90;47.80;;;;;;5138946;27;20422;-57
2023/09/03 03:09:05;;;;;;;0.90;0.60;;;18.80;44.30;;;;;;5138072;27;20824;-58
2023/09/03 03:11:34;;;;;;;1.00;0.65;;;18.90;39.10;;;;;;5137504;27;20690;-56
2023/09/03 03:14:01;;;;;;;0.90;0.60;;;18.80;32.80;;;;;;5138156;27;20568;-55
2023/09/03 03:16:28;;;;;;;0.90;0.60;;;18.90;30.60;;;;;;5137841;27;20517;-57
2023/09/03 03:18:55;;;;;;;0.93;0.60;;;18.80;31.30;;;;;;5137346;27;20430;-57
2023/09/03 03:21:23;;;;;;;2.90;0.65;;;18.80;35.60;;;;;;5134620;27;20732;-57
2023/09/03 03:23:51;;;;;;;1.42;0.60;;;18.80;29.90;;;;;;5134388;27;20475;-58
2023/09/03 03:26:19;;;;;;;0.70;0.60;;;18.70;31.40;;;;;;5133985;27;20706;-56
2023/09/03 03:28:48;;;;;;;1.17;0.70;;;18.70;41.20;;;;;;5134784;27;20410;-57
2023/09/03 03:31:16;;;;;;;1.38;0.60;;;18.70;52.40;;;;;;5136161;27;20430;-58
2023/09/03 03:33:45;;;;;;;1.20;0.70;;;18.70;45.60;;;;;;5136434;27;20456;-58
2023/09/03 03:36:13;;;;;;;1.10;0.60;;;18.70;41.50;;;;;;5136821;27;20410;-57
2023/09/03 03:38:41;;;;;;;1.60;0.60;;;18.70;38.40;;;;;;5136995;27;20453;-58
2023/09/03 03:41:10;;;;;;;1.05;0.60;;;18.70;35.00;;;;;;5137058;27;20501;-57
2023/09/03 03:43:37;;;;;;;1.20;0.60;;;18.70;44.70;;;;;;5137249;27;20415;-59
2023/09/03 03:46:07;;;;;;;0.90;0.60;;;18.70;48.10;;;;;;5137898;27;20414;-59
2023/09/03 03:48:34;;;;;;;1.20;0.60;;;18.70;41.00;;;;;;5138244;27;20433;-58
2023/09/03 03:51:01;;;;;;;1.00;0.60;;;18.70;43.40;;;;;;5137034;27;20414;-58
2023/09/03 03:53:28;;;;;;;1.20;0.60;;;18.80;42.60;;;;;;5134829;27;20418;-58
2023/09/03 03:55:59;;;;;;;1.90;0.70;;;18.90;33.80;;;;;;5135407;27;20411;-58
2023/09/03 03:58:28;;;;;;;1.50;0.70;;;18.80;33.30;;;;;;5135842;27;20731;-57
2023/09/03 04:00:55;;;;;;;1.63;0.70;;;18.80;40.00;;;;;;5136091;27;20804;-58
2023/09/03 04:03:24;;;;;;;1.00;0.70;;;18.80;55.70;;;;;;5135379;27;20742;-57
2023/09/03 04:05:58;;;;;;;1.50;0.70;;;18.90;48.40;;;;;;5136041;27;20422;-57
2023/09/03 04:08:26;;;;;;;1.40;0.70;;;18.90;49.70;;;;;;5137592;27;20422;-56
2023/09/03 04:10:57;;;;;;;1.40;0.60;;;18.90;48.90;;;;;;5137381;27;20406;-58
2023/09/03 04:13:25;;;;;;;0.90;0.60;;;18.80;49.00;;;;;;5137239;27;20790;-57
2023/09/03 04:15:52;;;;;;;1.02;0.70;;;18.70;40.40;;;;;;5137227;27;20422;-57
2023/09/03 04:18:19;;;;;;;1.13;0.60;;;18.70;37.90;;;;;;5137803;27;20436;-58
2023/09/03 04:20:50;;;;;;;1.40;0.60;;;18.70;39.60;;;;;;5137475;27;20421;-56
2023/09/03 04:23:17;;;;;;;1.00;0.70;;;18.70;39.00;;;;;;5137393;27;20407;-58
2023/09/03 04:25:44;;;;;;;0.90;0.60;;;18.60;37.90;;;;;;5137459;27;20420;-58
2023/09/03 04:28:12;;;;;;;0.90;0.60;;;18.60;41.60;;;;;;5137413;27;20415;-56
2023/09/03 04:30:39;;;;;;;1.50;0.70;;;18.70;45.60;;;;;;5137430;27;20426;-57
2023/09/03 04:33:07;;;;;;;0.80;0.60;;;18.70;42.90;;;;;;5137449;27;20419;-57
2023/09/03 04:35:34;;;;;;;1.60;0.70;;;18.60;39.00;;;;;;5137258;27;20976;-57
2023/09/03 04:38:03;;;;;;;1.00;0.70;;;18.60;37.10;;;;;;5136938;27;20429;-58
2023/09/03 04:40:33;;;;;;;1.00;0.60;;;18.60;38.80;;;;;;5137432;27;20414;-57
2023/09/03 04:43:00;;;;;;;1.00;0.60;;;18.60;44.40;;;;;;5136972;27;20422;-58
2023/09/03 04:45:27;;;;;;;1.60;0.70;;;18.50;49.90;;;;;;5136906;27;20474;-58
2023/09/03 04:47:55;;;;;;;1.00;0.60;;;18.50;50.60;;;;;;5136743;27;20836;-57
2023/09/03 04:50:22;;;;;;;1.87;0.70;;;18.60;54.10;;;;;;5136588;27;20457;-57
2023/09/03 04:52:50;;;;;;;1.13;0.80;;;18.60;50.20;;;;;;5136905;27;20421;-57
2023/09/03 04:55:20;;;;;;;1.10;0.70;;;18.60;48.70;;;;;;5135695;27;20829;-58
2023/09/03 04:57:47;;;;;;;1.00;0.60;;;18.60;57.00;;;;;;5136452;27;20840;-57
2023/09/03 05:00:15;;;;;;;1.50;0.70;;;18.60;58.90;;;;;;5137029;27;20678;-57
2023/09/03 05:02:42;;;;;;;1.40;0.70;;;18.70;54.30;;;;;;5137052;27;20445;-57
2023/09/03 05:05:10;;;;;;;1.00;0.70;;;18.60;63.30;;;;;;5136610;27;20762;-57
2023/09/03 05:07:37;;;;;;;2.50;0.77;;;18.60;59.90;;;;;;5136540;27;20414;-58
2023/09/03 05:10:05;;;;;;;1.00;0.70;;;18.60;56.30;;;;;;5136580;27;20414;-57
2023/09/03 05:12:35;;;;;;;1.50;0.70;;;18.60;54.90;;;;;;5136632;27;20422;-57
2023/09/03 05:15:02;;;;;;;1.80;0.50;;;18.60;55.70;;;;;;5136186;27;20422;-58
2023/09/03 05:17:29;;;;;;;0.80;0.60;;;18.70;40.00;;;;;;5136748;27;20419;-57
2023/09/03 05:19:57;;;;;;;1.00;0.70;;;18.60;41.60;;;;;;5136365;27;20832;-57
2023/09/03 05:22:24;;;;;;;1.42;0.80;;;18.70;41.40;;;;;;5136557;27;20542;-57
2023/09/03 05:24:51;;;;;;;1.10;0.70;;;18.80;30.00;;;;;;5136299;27;20517;-57
2023/09/03 05:27:18;;;;;;;1.20;0.70;;;18.80;31.30;;;;;;5135522;27;20706;-57
2023/09/03 05:29:47;;;;;;;1.00;0.60;;;18.90;29.40;;;;;;5135292;27;20422;-56
2023/09/03 05:32:14;;;;;;;1.00;0.60;;;18.90;28.80;;;;;;5135732;27;20464;-57
2023/09/03 05:34:41;;;;;;;1.30;0.70;;;19.00;31.10;;;;;;5136290;27;20413;-58
2023/09/03 05:37:09;;;;;;;0.80;0.60;;;19.00;25.90;;;;;;5134859;27;20414;-57
2023/09/03 05:39:36;;;;;;;1.30;0.80;;;18.90;34.30;;;;;;5135605;27;20956;-57
2023/09/03 05:42:04;;;;;;;2.70;0.80;;;19.00;37.20;;;;;;5135727;27;20422;-57
2023/09/03 05:44:31;;;;;;;0.98;0.70;;;18.90;40.80;;;;;;5135236;27;20415;-57
2023/09/03 05:46:59;;;;;;;2.50;0.80;;;19.00;42.90;;;;;;5135345;27;20456;-57
2023/09/03 05:49:26;;;;;;;1.50;0.70;;;19.10;31.40;;;;;;5135760;27;20418;-56
2023/09/03 05:51:53;;;;;;;1.27;1.00;;;19.20;18.70;;;;;;5135967;27;20422;-57
2023/09/03 05:54:20;;;;;;;1.13;0.80;;;19.30;6.80;;;;;;5135360;27;20425;-57
2023/09/03 05:56:47;;;;;;;1.30;0.80;;;19.20;12.00;;;;;;5135247;27;20415;-57
2023/09/03 05:59:15;;;;;;;1.20;0.80;;;19.10;13.50;;;;;;5134691;27;20422;-57
2023/09/03 06:01:42;;;;;;;1.20;0.80;;;19.10;18.20;;;;;;5136058;27;20467;-57
2023/09/03 06:04:15;;;;;;;1.40;0.70;;;19.20;19.80;;;;;;5134885;27;20423;-57
2023/09/03 06:06:42;;;;;;;0.90;0.70;;;19.30;10.90;;;;;;5096894;28;20442;-57
2023/09/03 06:09:09;;;;;;;1.40;0.60;;;19.30;1.70;;;;;;5095402;28;20440;-57
2023/09/03 06:11:37;;;;;;;1.60;0.70;;;19.30;1.00;;;;;;5094168;28;20853;-57
2023/09/03 06:14:04;;;;;;;1.00;0.60;;;19.30;1.00;;;;;;5092935;28;20417;-58
2023/09/03 06:16:31;;;;;;;0.90;0.70;;;19.30;1.00;;;;;;5105353;28;20420;-57
2023/09/03 06:18:58;;;;;;;1.40;0.70;;;19.20;7.80;;;;;;5111178;28;20436;-57
2023/09/03 06:21:27;;;;;;;1.50;0.60;;;19.20;13.80;;;;;;5112342;28;20436;-58
2023/09/03 06:23:57;;;;;;;1.40;0.70;;;19.30;20.70;;;;;;5112830;28;20479;-58
2023/09/03 06:29:14;;;;;;;1.10;0.70;;;19.60;1.00;;;;;;5094566;28;20851;-60
2023/09/03 06:31:41;;;;;;;1.10;0.70;;;19.70;1.00;;;;;;5114755;28;20420;-60
2023/09/03 06:34:08;;;;;;;1.70;0.70;;;19.70;1.00;;;;;;5113192;28;20489;-60
2023/09/03 06:36:37;;;;;;;1.00;0.70;;;19.60;1.00;;;;;;5114909;28;20463;-59
2023/09/03 06:39:04;;;;;;;1.40;0.80;;;19.80;1.00;;;;;;5109517;28;20420;-60
2023/09/03 06:41:31;;;;;;;1.10;0.80;;;19.90;1.00;;;;;;5118283;28;20409;-59
2023/09/03 06:43:58;;;;;;;1.63;0.80;;;19.90;1.00;;;;;;5105493;28;20429;-59
2023/09/03 06:46:25;;;;;;;1.90;0.80;;;19.80;1.00;;;;;;5097911;28;20422;-59
2023/09/03 06:48:54;;;;;;;1.50;0.80;;;19.80;1.00;;;;;;5097260;28;20475;-59
2023/09/03 06:51:21;;;;;;;1.20;0.77;;;19.80;1.00;;;;;;5098399;28;20436;-60
2023/09/03 06:53:50;;;;;;;1.30;0.80;;;19.80;1.00;;;;;;5110620;27;20853;-60
2023/09/03 06:56:17;;;;;;;1.20;0.80;;;19.80;1.00;;;;;;5137868;27;20426;-60
2023/09/03 06:58:44;;;;;;;1.30;0.70;;;19.80;1.00;;;;;;5131841;27;20436;-60
2023/09/03 07:01:11;;;;;;;2.00;0.70;;;19.90;1.00;;;;;;5131119;27;20426;-60
2023/09/03 07:03:38;;;;;;;1.30;0.90;;;20.10;1.00;;;;;;5116332;28;20810;-60
2023/09/03 07:06:05;;;;;;;1.60;0.80;;;20.20;1.00;;;;;;5122208;27;20405;-59
2023/09/03 07:08:33;;;;;;;1.60;0.80;;;20.40;1.00;;;;;;5137830;27;20414;-61
2023/09/03 07:11:02;;;;;;;2.47;0.80;;;20.60;1.00;;;;;;5130708;27;20544;-60
2023/09/03 07:13:34;;;;;;;1.67;0.80;;;20.60;1.00;;;;;;5130876;27;20500;-60
2023/09/03 07:16:04;;;;;;;1.17;0.88;;;20.50;1.00;;;;;;5136437;27;20418;-60
2023/09/03 07:18:32;;;;;;;1.45;0.70;;;20.50;1.00;;;;;;5115869;28;20435;-60
2023/09/03 07:21:05;;;;;;;1.25;0.70;;;20.60;1.00;;;;;;5114578;28;20428;-60
2023/09/03 07:23:32;;;;;;;1.20;0.80;;;20.80;1.00;;;;;;5115125;28;20415;-60
2023/09/03 07:26:04;;;;;;;1.73;0.80;;;20.90;1.00;;;;;;5124403;27;20845;-60
2023/09/03 07:28:31;;;;;;;1.40;0.90;;;21.00;1.00;;;;;;5115189;27;20853;-60
2023/09/03 07:30:59;;;;;;;1.30;0.90;;;20.60;1.00;;;;;;5111415;28;20831;-60
2023/09/03 07:33:26;;;;;;;1.60;0.80;;;20.50;1.00;;;;;;5119230;27;20430;-61
2023/09/03 07:35:53;;;;;;;2.00;0.90;;;20.60;1.00;;;;;;5136371;27;20418;-60
2023/09/03 07:38:21;;;;;;;1.10;0.90;;;20.70;1.00;;;;;;5136614;27;20418;-60
2023/09/03 07:40:48;;;;;;;1.40;0.93;;;20.50;1.00;;;;;;5130182;27;20733;-60
2023/09/03 07:43:16;;;;;;;1.60;1.00;;;20.40;1.00;;;;;;5126383;27;20506;-59
2023/09/03 07:45:44;;;;;;;1.90;1.00;;;20.30;1.00;;;;;;5137179;27;20797;-59
2023/09/03 07:48:11;;;;;;;1.90;1.10;;;20.20;1.00;;;;;;5118163;27;20518;-59
2023/09/03 07:50:39;;;;;;;1.90;0.90;;;20.40;1.00;;;;;;5115556;28;20711;-60
2023/09/03 07:53:06;;;;;;;1.30;0.80;;;20.50;1.00;;;;;;5106456;28;20425;-60
2023/09/03 07:55:33;;;;;;;1.30;1.10;;;20.80;1.00;;;;;;5094851;28;20436;-59
2023/09/03 07:58:00;;;;;;;1.20;0.90;;;21.10;1.00;;;;;;5095598;28;20421;-59
2023/09/03 08:00:29;;;;;;;1.23;0.90;;;21.30;1.00;;;;;;5093911;28;20509;-59
2023/09/03 08:02:56;;;;;;;1.40;1.10;;;21.40;1.00;;;;;;5094230;28;20417;-60
2023/09/03 08:05:23;;;;;;;1.90;1.00;;;21.30;1.00;;;;;;5094820;28;20848;-59
2023/09/03 08:07:51;;;;;;;1.30;0.90;;;21.20;1.00;;;;;;5095950;28;20432;-59
2023/09/03 08:10:18;;;;;;;1.30;0.90;;;21.00;1.00;;;;;;5095628;28;20894;-60
2023/09/03 08:12:45;;;;;;;1.90;0.90;;;21.00;1.00;;;;;;5096928;28;20569;-60
2023/09/03 08:15:13;;;;;;;1.50;1.00;;;21.20;1.00;;;;;;5117260;28;20426;-60
2023/09/03 08:17:43;;;;;;;1.50;1.00;;;21.50;1.00;;;;;;5112126;28;20434;-60
2023/09/03 08:20:12;;;;;;;1.70;1.10;;;21.40;1.00;;;;;;5116323;28;20489;-60
2023/09/03 08:22:39;;;;;;;1.40;0.80;;;21.40;1.00;;;;;;5107804;28;20447;-60
2023/09/03 08:25:07;;;;;;;1.70;0.90;;;21.30;1.00;;;;;;5094874;28;20406;-60
2023/09/03 08:27:34;;;;;;;2.63;1.10;;;21.50;1.00;;;;;;5100296;28;20447;-60
2023/09/03 08:30:02;;;;;;;1.30;0.80;;;21.30;1.00;;;;;;5115792;28;20515;-60
2023/09/03 08:32:30;;;;;;;1.23;0.80;;;21.20;1.00;;;;;;5106620;27;20868;-60
2023/09/03 08:34:58;;;;;;;1.75;1.00;;;21.30;1.00;;;;;;5091380;28;20910;-60
2023/09/03 08:37:27;;;;;;;1.70;0.90;;;21.40;1.00;;;;;;5092241;28;20417;-60
2023/09/03 08:39:54;;;;;;;1.20;0.90;;;21.50;1.00;;;;;;5092855;28;20995;-60
2023/09/03 08:42:22;;;;;;;3.08;0.80;;;21.50;1.00;;;;;;5093200;28;20422;-60
2023/09/03 08:44:53;;;;;;;1.40;1.00;;;21.40;1.00;;;;;;5094285;28;20433;-60
2023/09/03 08:47:20;;;;;;;1.40;0.80;;;21.40;1.00;;;;;;5095597;28;20426;-59
2023/09/03 08:49:48;;;;;;;1.30;0.80;;;21.50;1.00;;;;;;5095934;28;20410;-59
2023/09/03 08:52:17;;;;;;;1.30;0.82;;;21.70;1.00;;;;;;5096327;28;20421;-59
2023/09/03 08:54:44;;;;;;;1.45;0.80;;;21.90;1.00;;;;;;5114749;28;20478;-59
2023/09/03 08:57:12;;;;;;;0.95;0.77;;;22.00;1.00;;;;;;5116156;28;20707;-59
2023/09/03 08:59:39;;;;;;;1.20;0.80;;;22.10;1.00;;;;;;5115406;28;20431;-59
2023/09/03 09:02:10;;;;;;;1.20;0.80;;;22.40;1.00;;;;;;5113886;28;20420;-59
2023/09/03 09:04:37;;;;;;;1.20;0.90;;;22.60;1.00;;;;;;5113234;28;20443;-59
2023/09/03 09:07:05;;;;;;;1.10;0.70;;;22.90;1.00;;;;;;5113773;28;20407;-58
2023/09/03 09:09:35;;;;;;;1.10;0.70;;;22.90;99.90;;;;;;5134123;27;20407;-60
2023/09/03 09:12:09;;;;;;;1.10;0.80;;;23.00;99.90;;;;;;5134255;27;20856;-60
2023/09/03 09:14:40;;;;;;;1.30;0.80;;;23.10;99.90;;;;;;5113714;28;20429;-60
2023/09/03 09:17:13;;;;;;;1.23;1.10;;;23.40;99.90;;;;;;5112241;28;20886;-60
2023/09/03 09:19:40;;;;;;;1.17;0.80;;;23.40;1.00;;;;;;5111542;28;20448;-60
2023/09/03 09:22:07;;;;;;;1.17;0.70;;;23.40;48.90;;;;;;5113540;27;20416;-60
2023/09/03 09:24:43;;;;;;;1.30;0.70;;;23.40;1.00;;;;;;5134283;27;20422;-60
2023/09/03 09:27:14;;;;;;;1.30;0.70;;;23.60;1.00;;;;;;5127505;27;20431;-61
2023/09/03 09:29:42;;;;;;;1.20;0.70;;;23.70;1.00;;;;;;5113523;28;20416;-60
2023/09/03 09:32:18;;;;;;;1.00;0.65;;;24.00;44.90;;;;;;5115386;28;20855;-61
2023/09/03 09:34:46;;;;;;;1.15;0.60;;;24.10;99.90;;;;;;5116697;27;20442;-61
2023/09/03 09:37:13;;;;;;;1.10;0.70;;;24.20;1.00;;;;;;5119227;28;20893;-60
2023/09/03 09:39:46;;;;;;;1.40;0.60;;;24.20;99.90;;;;;;5133181;27;20479;-61
2023/09/03 09:42:18;;;;;;;0.80;0.60;;;24.10;1.00;;;;;;5119460;27;20444;-59
2023/09/03 09:44:58;;;;;;;0.90;0.60;;;24.10;1.00;;;;;;5135994;27;20430;-61
2023/09/03 09:47:27;;;;;;;0.80;0.50;;;24.30;99.90;;;;;;5128734;28;20434;-60
2023/09/03 09:49:54;;;;;;;0.97;0.60;;;24.40;1.00;;;;;;5114898;28;20424;-60
2023/09/03 09:52:21;;;;;;;1.00;0.60;;;24.50;1.00;;;;;;5111893;28;20769;-60
2023/09/03 09:54:50;;;;;;;1.20;0.60;;;24.50;1.00;;;;;;5094793;28;20922;-60
2023/09/03 09:57:21;;;;;;;1.00;0.60;;;24.60;1.00;;;;;;5100636;28;20513;-57
2023/09/03 09:59:53;;;;;;;0.80;0.60;;;24.70;1.00;;;;;;5114275;28;20436;-58
2023/09/03 10:02:21;;;;;;;1.30;0.70;;;24.70;1.00;;;;;;5095949;28;20437;-58
2023/09/03 10:04:49;;;;;;;1.30;0.60;;;24.60;1.00;;;;;;5086940;28;20435;-58
2023/09/03 10:07:17;;;;;;;0.80;0.60;;;24.60;1.00;;;;;;5103010;28;20428;-58
2023/09/03 10:09:45;;;;;;;0.70;0.50;;;24.60;1.00;;;;;;5113783;28;20833;-61
2023/09/03 10:12:15;;;;;;;0.90;0.50;;;24.70;99.90;;;;;;5112237;28;20513;-61
2023/09/03 10:14:43;;;;;;;1.10;0.50;;;24.90;99.90;;;;;;5099743;28;20429;-61
2023/09/03 10:17:11;;;;;;;0.70;0.50;;;25.20;99.90;;;;;;5114945;28;20442;-60
2023/09/03 10:19:47;;;;;;;1.00;0.50;;;25.50;1.00;;;;;;5111207;28;20445;-60
2023/09/03 10:22:18;;;;;;;0.80;0.50;;;25.90;1.00;;;;;;5095239;28;20412;-60
2023/09/03 10:24:48;;;;;;;0.85;0.50;;;25.90;1.00;;;;;;5103464;28;20436;-61
2023/09/03 10:27:28;;;;;;;0.60;0.40;;;26.00;1.00;;;;;;5116039;28;20841;-60
2023/09/03 10:29:58;;;;;;;0.50;0.30;;;25.80;99.90;;;;;;5105305;28;20428;-61
2023/09/03 10:32:26;;;;;;;0.60;0.40;;;25.80;99.90;;;;;;5111927;28;20513;-60
2023/09/03 10:34:54;;;;;;;1.13;0.40;;;26.00;99.90;;;;;;5113945;28;20492;-61
2023/09/03 10:37:22;;;;;;;0.70;0.40;;;26.10;99.90;;;;;;5105599;28;20569;-61
2023/09/03 10:39:49;;;;;;;0.80;0.47;;;26.20;99.90;;;;;;5108895;28;20463;-61
2023/09/03 10:42:31;;;;;;;1.10;0.30;;;26.40;99.90;;;;;;5117737;28;20426;-62
2023/09/03 10:45:00;;;;;;;0.50;0.30;;;26.20;99.90;;;;;;5101387;28;20445;-61
2023/09/03 10:47:27;;;;;;;0.85;0.30;;;26.30;99.90;;;;;;5117792;28;20522;-60
2023/09/03 10:49:55;;;;;;;1.50;0.40;;;26.70;99.90;;;;;;5112284;28;20432;-61
2023/09/03 10:52:35;;;;;;;0.52;0.30;;;26.80;99.90;;;;;;5098208;28;20414;-61
2023/09/03 10:55:16;;;;;;;0.80;0.40;;;27.10;99.90;;;;;;5117162;28;20469;-60
2023/09/03 10:57:45;;;;;;;0.45;0.30;;;27.10;24.30;;;;;;5116803;28;20422;-61
2023/09/03 11:00:18;;;;;;;0.50;0.30;;;27.10;1.00;;;;;;5134317;27;20442;-60
2023/09/03 11:02:45;;;;;;;0.50;0.30;;;27.40;1.00;;;;;;5135865;27;20461;-61
2023/09/03 11:05:13;;;;;;;0.50;0.30;;;27.50;1.00;;;;;;5117364;28;20420;-61
2023/09/03 11:07:41;;;;;;;0.80;0.30;;;27.60;1.00;;;;;;5116908;28;20510;-61
2023/09/03 11:10:42;;;;;;;0.63;0.30;;;27.70;1.00;;;;;;5120797;27;20440;-61
2023/09/03 11:13:13;;;;;;;0.50;0.30;;;28.00;1.00;;;;;;5117654;28;20409;-61
2023/09/03 11:15:55;;;;;;;0.80;0.30;;;28.10;1.00;;;;;;5129407;27;20749;-61
2023/09/03 11:18:22;;;;;;;0.50;0.30;;;28.20;1.00;;;;;;5137055;27;20838;-61
2023/09/03 11:20:51;;;;;;;0.50;0.30;;;27.60;1.00;;;;;;5138021;27;20883;-61
2023/09/03 11:23:18;;;;;;;0.60;0.30;;;27.70;1.00;;;;;;5137323;27;20446;-61
2023/09/03 11:25:46;;;;;;;0.50;0.30;;;27.70;1.00;;;;;;5122397;27;20443;-62
2023/09/03 11:28:15;;;;;;;0.50;0.30;;;27.70;1.00;;;;;;5114443;28;20417;-61
2023/09/03 11:30:44;;;;;;;0.50;0.30;;;27.90;1.00;;;;;;5122039;27;20436;-62
2023/09/03 11:33:23;;;;;;;0.50;0.30;;;28.20;1.00;;;;;;5117032;28;20837;-61
2023/09/03 11:35:50;;;;;;;0.40;0.30;;;28.10;1.00;;;;;;5116658;28;20431;-62
2023/09/03 11:38:17;;;;;;;0.60;0.30;;;28.10;1.00;;;;;;5134727;27;20502;-62
2023/09/03 11:40:45;;;;;;;1.25;0.30;;;28.00;1.00;;;;;;5136249;27;20430;-61
2023/09/03 11:43:13;;;;;;;0.50;0.30;;;28.00;1.00;;;;;;5137111;27;20430;-61
2023/09/03 11:45:41;;;;;;;0.50;0.30;;;28.10;1.00;;;;;;5124168;27;21327;-61
2023/09/03 11:48:08;;;;;;;0.70;0.30;;;28.20;1.00;;;;;;5137931;27;20518;-61
2023/09/03 11:50:36;;;;;;;0.60;0.40;;;28.20;1.00;;;;;;5132364;27;20455;-61
2023/09/03 11:53:05;;;;;;;0.80;0.30;;;28.00;1.00;;;;;;5115265;28;20426;-61
2023/09/03 11:55:37;;;;;;;0.80;0.40;;;27.60;1.00;;;;;;5115283;27;20705;-61
2023/09/03 11:58:08;;;;;;;0.60;0.30;;;27.00;1.00;;;;;;5135198;27;20426;-61
2023/09/03 12:00:37;;;;;;;0.63;0.40;;;26.80;1.00;;;;;;5128867;27;20455;-61
2023/09/03 12:03:05;;;;;;;0.90;0.30;;;26.70;1.00;;;;;;5117500;27;20431;-61
2023/09/03 12:05:33;;;;;;;0.70;0.30;;;26.80;1.00;;;;;;5117155;27;20436;-61
2023/09/03 12:08:02;;;;;;;0.65;0.40;;;26.90;1.00;;;;;;5123037;27;20436;-61
2023/09/03 12:10:31;;;;;;;0.70;0.30;;;27.20;1.00;;;;;;5133300;27;20414;-61
2023/09/03 12:12:59;;;;;;;0.50;0.40;;;27.50;1.00;;;;;;5134034;27;20482;-61
2023/09/03 12:15:29;;;;;;;0.40;0.30;;;27.50;1.00;;;;;;5134657;27;20422;-61
2023/09/03 12:18:08;;;;;;;0.50;0.30;;;27.50;1.00;;;;;;5133474;27;20426;-61
2023/09/03 12:20:37;;;;;;;0.50;0.30;;;27.70;1.00;;;;;;5126503;27;20432;-61
2023/09/03 12:23:09;;;;;;;1.70;0.80;;;27.70;1.00;;;;;;5135374;27;20473;-61
2023/09/03 12:25:36;;;;;;;1.00;0.30;;;27.90;1.00;;;;;;5136023;27;20461;-61
2023/09/03 12:28:04;;;;;;;0.50;0.30;;;27.80;1.00;;;;;;5135384;27;20411;-61
2023/09/03 12:30:59;;;;;;;0.50;0.30;;;27.80;1.00;;;;;;5136238;27;20521;-61
2023/09/03 12:33:43;;;;;;;0.52;0.40;;;27.90;1.00;;;;;;5134266;27;20737;-61
2023/09/03 12:36:11;;;;;;;0.60;0.40;;;28.00;1.00;;;;;;5129699;27;20434;-61
2023/09/03 12:39:03;;;;;;;0.60;0.30;;;28.10;1.00;;;;;;5117597;27;20525;-61
2023/09/03 12:41:34;;;;;;;0.50;0.30;;;28.20;1.00;;;;;;5124498;27;20427;-61
2023/09/03 12:44:07;;;;;;;0.50;0.30;;;28.20;1.00;;;;;;5114756;27;20428;-61
2023/09/03 12:46:34;;;;;;;0.60;0.40;;;28.30;1.00;;;;;;5111391;28;20435;-61
2023/09/03 12:49:03;;;;;;;1.00;0.40;;;27.80;1.00;;;;;;5130055;27;20789;-61
2023/09/03 12:51:33;;;;;;;0.60;0.40;;;27.80;1.00;;;;;;5130387;27;20745;-62
2023/09/03 12:54:00;;;;;;;0.60;0.40;;;27.80;1.00;;;;;;5129287;27;20428;-62
2023/09/03 12:56:28;;;;;;;0.70;0.40;;;27.80;1.00;;;;;;5116593;27;20863;-62
2023/09/03 12:58:55;;;;;;;0.60;0.40;;;27.80;1.00;;;;;;5129146;27;20753;-61
2023/09/03 13:01:23;;;;;;;0.57;0.30;;;27.70;1.00;;;;;;5123705;27;20422;-61
2023/09/03 13:03:50;;;;;;;0.50;0.30;;;27.80;1.00;;;;;;5132381;27;20441;-61
2023/09/03 13:06:18;;;;;;;0.50;0.40;;;27.80;1.00;;;;;;5115484;27;20440;-62